Time;durP1;ratioP1;P1;durP2;ratioP2;P2;SDS_P1;SDS_P2;PMS_P1;PMS_P2;Temp;Humidity;BMP_temperature;BMP_pressure;BME280_temperature;BME280_humidity;BME280_pressure;Samples;Min_cycle;Max_cycle;Signal;HPM_P1;HPM_P2
2021/07/25 00:01:42;;;;;;;42.55;31.77;;;17.90;99.90;;;;;;5029363;28;20498;-70
2021/07/25 00:04:08;;;;;;;44.22;33.20;;;17.90;99.90;;;;;;5032060;28;20061;-70
2021/07/25 00:06:33;;;;;;;44.33;34.17;;;17.90;99.90;;;;;;5025618;28;20049;-70
2021/07/25 00:08:59;;;;;;;48.33;34.15;;;17.90;99.90;;;;;;5029785;28;20479;-70
2021/07/25 00:11:26;;;;;;;46.63;33.80;;;17.90;99.90;;;;;;5027118;28;20025;-70
2021/07/25 00:13:52;;;;;;;48.55;35.95;;;17.90;99.90;;;;;;5032231;28;20163;-70
2021/07/25 00:16:19;;;;;;;47.35;36.17;;;17.90;99.90;;;;;;5029558;28;20033;-70
2021/07/25 00:18:45;;;;;;;50.00;36.47;;;18.00;99.90;;;;;;5035824;28;20025;-70
2021/07/25 00:21:11;;;;;;;44.22;34.25;;;18.00;99.90;;;;;;5033909;28;20021;-70
2021/07/25 00:23:37;;;;;;;47.83;35.03;;;18.00;99.90;;;;;;5035701;28;20056;-70
2021/07/25 00:26:04;;;;;;;40.75;33.53;;;18.00;99.90;;;;;;5031602;28;20030;-70
2021/07/25 00:28:33;;;;;;;43.53;34.28;;;18.00;99.90;;;;;;5034784;28;20033;-70
2021/07/25 00:31:05;;;;;;;44.33;34.92;;;18.00;99.90;;;;;;5027759;28;20018;-70
2021/07/25 00:33:32;;;;;;;47.22;36.17;;;18.00;99.90;;;;;;5032094;28;20409;-69
2021/07/25 00:36:00;;;;;;;44.88;34.75;;;18.00;99.90;;;;;;5033515;28;20045;-70
2021/07/25 00:38:26;;;;;;;49.97;36.97;;;18.00;99.90;;;;;;5032615;28;20288;-70
2021/07/25 00:40:57;;;;;;;47.15;36.22;;;18.00;99.90;;;;;;5032718;28;20120;-70
2021/07/25 00:43:30;;;;;;;54.40;38.85;;;18.00;99.90;;;;;;5034464;28;20030;-70
2021/07/25 00:45:56;;;;;;;53.70;39.03;;;18.00;99.90;;;;;;5029722;28;20038;-70
2021/07/25 00:48:24;;;;;;;49.30;37.10;;;18.00;99.90;;;;;;5034211;28;20025;-70
2021/07/25 00:50:50;;;;;;;50.55;38.70;;;18.00;99.90;;;;;;5033048;28;20105;-70
2021/07/25 00:53:18;;;;;;;55.95;41.10;;;18.00;99.90;;;;;;5033113;28;20057;-69
2021/07/25 00:55:44;;;;;;;52.85;39.28;;;18.00;99.90;;;;;;5031788;28;20080;-70
2021/07/25 00:58:10;;;;;;;51.17;38.33;;;18.00;99.90;;;;;;5033925;28;20041;-69
2021/07/25 01:00:35;;;;;;;53.95;40.42;;;18.00;99.90;;;;;;5033338;28;20029;-70
2021/07/25 01:03:22;;;;;;;50.83;37.95;;;18.00;99.90;;;;;;5034796;28;20589;-70
2021/07/25 01:06:15;;;;;;;49.67;37.22;;;18.00;99.90;;;;;;5030422;28;21115;-69
2021/07/25 01:08:45;;;;;;;54.35;39.42;;;18.00;99.90;;;;;;5033386;28;20508;-70
2021/07/25 01:11:13;;;;;;;55.95;39.28;;;17.90;99.90;;;;;;5029937;28;20045;-69
2021/07/25 01:13:42;;;;;;;52.00;38.78;;;17.90;99.90;;;;;;5029524;28;20459;-70
2021/07/25 01:16:09;;;;;;;55.05;39.53;;;17.90;99.90;;;;;;5033134;28;20035;-69
2021/07/25 01:18:48;;;;;;;52.50;38.85;;;17.90;99.90;;;;;;5032953;28;20064;-70
2021/07/25 01:21:18;;;;;;;49.58;35.88;;;17.90;99.90;;;;;;5033361;28;20041;-70
2021/07/25 01:23:46;;;;;;;51.33;38.92;;;17.90;99.90;;;;;;5031695;28;20021;-69
2021/07/25 01:26:14;;;;;;;51.00;37.28;;;17.90;99.90;;;;;;5030629;28;20026;-69
2021/07/25 01:28:46;;;;;;;48.80;37.08;;;17.90;99.90;;;;;;5032622;28;20119;-69
2021/07/25 01:31:29;;;;;;;56.85;39.35;;;17.80;99.90;;;;;;5025098;28;20021;-70
2021/07/25 01:33:55;;;;;;;;;;;17.80;99.90;;;;;;5034205;28;20412;-70
2021/07/25 01:36:21;;;;;;;56.20;39.10;;;17.70;99.90;;;;;;5031676;28;19962;-70
2021/07/25 01:38:48;;;;;;;51.35;38.88;;;17.70;99.90;;;;;;5031268;28;20029;-69
2021/07/25 01:41:17;;;;;;;53.22;39.47;;;17.70;99.90;;;;;;5033097;28;20040;-70
2021/07/25 01:43:47;;;;;;;57.28;40.45;;;17.70;99.90;;;;;;5033347;28;20040;-70
2021/07/25 01:46:13;;;;;;;59.78;42.53;;;17.60;99.90;;;;;;5028864;28;20025;-70
2021/07/25 01:48:38;;;;;;;56.15;40.05;;;17.60;99.90;;;;;;5031170;28;20426;-70
2021/07/25 01:51:05;;;;;;;51.90;39.72;;;17.60;99.90;;;;;;5029774;28;20022;-70
2021/07/25 01:53:31;;;;;;;56.38;39.85;;;17.50;99.90;;;;;;5032363;28;20080;-70
2021/07/25 01:55:56;;;;;;;54.38;40.08;;;17.50;99.90;;;;;;5030469;28;20033;-69
2021/07/25 01:58:22;;;;;;;53.83;38.70;;;17.50;99.90;;;;;;5033721;28;20443;-69
2021/07/25 02:00:48;;;;;;;49.65;37.20;;;17.50;99.90;;;;;;5027115;28;20074;-69
2021/07/25 02:03:21;;;;;;;52.47;37.17;;;17.40;99.90;;;;;;5029639;28;20041;-69
2021/07/25 02:05:47;;;;;;;57.15;38.78;;;17.40;99.90;;;;;;5029567;28;20030;-70
2021/07/25 02:08:14;;;;;;;45.25;35.55;;;17.30;99.90;;;;;;5032272;28;20022;-69
2021/07/25 02:10:43;;;;;;;48.45;35.92;;;17.30;99.90;;;;;;5030273;28;20021;-69
2021/07/25 02:13:09;;;;;;;48.80;34.65;;;17.30;99.90;;;;;;5030437;28;20084;-69
2021/07/25 02:15:35;;;;;;;45.60;33.00;;;17.20;99.90;;;;;;5031169;28;20049;-69
2021/07/25 02:18:00;;;;;;;47.22;33.38;;;17.20;99.90;;;;;;5032671;28;20025;-70
2021/07/25 02:20:26;;;;;;;42.85;32.55;;;17.20;99.90;;;;;;5031745;28;20045;-69
2021/07/25 02:22:51;;;;;;;43.38;31.95;;;17.20;99.90;;;;;;5031166;28;20427;-70
2021/07/25 02:25:16;;;;;;;43.88;30.92;;;17.20;99.90;;;;;;5030056;28;20116;-69
2021/07/25 02:27:42;;;;;;;41.28;30.35;;;17.20;99.90;;;;;;5032207;28;20028;-69
2021/07/25 02:30:08;;;;;;;42.08;31.67;;;17.20;99.90;;;;;;5032591;28;20032;-69
2021/07/25 02:32:33;;;;;;;38.42;29.02;;;17.10;99.90;;;;;;5029875;28;20494;-70
2021/07/25 02:34:59;;;;;;;44.15;31.33;;;17.10;99.90;;;;;;5030921;28;20025;-69
2021/07/25 02:37:24;;;;;;;44.78;31.10;;;17.10;99.90;;;;;;5029665;28;20388;-69
2021/07/25 02:39:50;;;;;;;39.28;27.95;;;17.10;99.90;;;;;;5030878;28;20537;-69
2021/07/25 02:42:15;;;;;;;38.28;27.45;;;17.10;99.90;;;;;;5027601;28;20108;-69
2021/07/25 02:44:41;;;;;;;40.03;28.83;;;17.00;99.90;;;;;;5031273;28;20037;-69
2021/07/25 02:47:06;;;;;;;36.42;27.60;;;17.00;99.90;;;;;;5033175;28;20748;-69
2021/07/25 02:49:32;;;;;;;40.60;28.17;;;17.00;99.90;;;;;;5031654;28;20036;-70
2021/07/25 02:52:01;;;;;;;36.28;27.48;;;16.90;99.90;;;;;;5031977;28;20063;-69
2021/07/25 02:54:27;;;;;;;40.55;27.60;;;16.90;99.90;;;;;;5029693;28;20022;-69
2021/07/25 02:56:53;;;;;;;40.83;28.20;;;16.80;99.90;;;;;;5029645;28;20400;-69
2021/07/25 02:59:18;;;;;;;42.22;28.20;;;16.80;99.90;;;;;;5031221;28;20029;-69
2021/07/25 03:01:45;;;;;;;41.85;29.77;;;16.80;99.90;;;;;;5026582;28;20068;-69
2021/07/25 03:04:11;;;;;;;38.97;27.65;;;16.70;99.90;;;;;;5029945;28;20045;-69
2021/07/25 03:06:36;;;;;;;44.92;29.95;;;16.70;99.90;;;;;;5030220;28;20119;-69
2021/07/25 03:09:02;;;;;;;36.60;27.30;;;16.60;99.90;;;;;;5030680;28;20062;-68
2021/07/25 03:11:28;;;;;;;40.10;28.50;;;16.60;99.90;;;;;;5031946;28;20028;-69
2021/07/25 03:13:53;;;;;;;41.28;28.40;;;16.60;99.90;;;;;;5030409;28;20041;-70
2021/07/25 03:16:19;;;;;;;37.75;28.30;;;16.60;99.90;;;;;;5030979;28;20037;-68
2021/07/25 03:18:45;;;;;;;40.97;28.52;;;16.60;99.90;;;;;;5032679;28;20045;-69
2021/07/25 03:21:11;;;;;;;38.55;28.38;;;16.70;99.90;;;;;;5032670;28;20040;-69
2021/07/25 03:23:37;;;;;;;40.15;26.95;;;16.70;99.90;;;;;;5030798;28;20029;-69
2021/07/25 03:26:02;;;;;;;37.97;27.25;;;16.70;99.90;;;;;;5029403;28;20029;-70
2021/07/25 03:28:28;;;;;;;38.15;27.70;;;16.70;99.90;;;;;;5031185;28;20084;-70
2021/07/25 03:30:54;;;;;;;37.60;27.02;;;16.70;99.90;;;;;;5029868;28;20104;-69
2021/07/25 03:33:19;;;;;;;35.45;26.65;;;16.60;99.90;;;;;;5031184;28;20021;-70
2021/07/25 03:35:46;;;;;;;41.90;30.42;;;16.70;99.90;;;;;;5030470;28;20026;-69
2021/07/25 03:38:12;;;;;;;45.60;31.15;;;16.60;99.90;;;;;;5030303;28;20029;-70
2021/07/25 03:40:41;;;;;;;39.08;27.92;;;16.60;99.90;;;;;;5029095;28;20043;-69
2021/07/25 03:43:06;;;;;;;33.20;25.17;;;16.70;99.90;;;;;;5031512;28;20034;-70
2021/07/25 03:45:32;;;;;;;35.78;25.10;;;16.50;99.90;;;;;;5028932;28;20033;-69
2021/07/25 03:47:58;;;;;;;30.15;23.55;;;16.60;99.90;;;;;;5030836;28;20021;-70
2021/07/25 03:50:23;;;;;;;35.30;23.10;;;16.50;99.90;;;;;;5030571;28;20053;-69
2021/07/25 03:52:49;;;;;;;31.15;23.60;;;16.50;99.90;;;;;;5030434;28;20029;-69
2021/07/25 03:55:16;;;;;;;30.95;24.02;;;16.50;99.90;;;;;;5028911;28;20064;-69
2021/07/25 03:57:42;;;;;;;34.42;24.23;;;16.50;99.90;;;;;;5030756;28;20030;-69
2021/07/25 04:00:08;;;;;;;31.70;23.88;;;16.50;99.90;;;;;;5030219;28;20036;-69
2021/07/25 04:02:33;;;;;;;32.15;23.05;;;16.50;99.90;;;;;;5027338;28;20059;-69
2021/07/25 04:04:59;;;;;;;32.60;23.13;;;16.40;99.90;;;;;;5029704;28;20021;-69
2021/07/25 04:07:24;;;;;;;29.70;22.38;;;16.40;99.90;;;;;;5030985;28;20018;-69
2021/07/25 04:09:50;;;;;;;27.30;21.52;;;16.50;99.90;;;;;;5028420;28;20100;-69
2021/07/25 04:12:15;;;;;;;29.05;21.30;;;16.50;99.90;;;;;;5029436;28;20097;-69
2021/07/25 04:14:41;;;;;;;28.70;21.88;;;16.50;99.90;;;;;;5026979;28;20217;-69
2021/07/25 04:17:06;;;;;;;30.77;22.35;;;16.50;99.90;;;;;;5030197;28;20104;-69
2021/07/25 04:19:32;;;;;;;33.40;21.20;;;16.50;99.90;;;;;;5030265;28;20030;-69
2021/07/25 04:22:01;;;;;;;28.38;21.70;;;16.50;99.90;;;;;;5031039;28;20087;-69
2021/07/25 04:24:26;;;;;;;29.40;21.45;;;16.60;99.90;;;;;;5027990;28;20044;-70
2021/07/25 04:26:52;;;;;;;28.88;20.92;;;16.60;99.90;;;;;;5031510;28;20029;-70
2021/07/25 04:29:18;;;;;;;28.45;20.77;;;16.70;99.90;;;;;;5027584;28;20040;-69
2021/07/25 04:31:44;;;;;;;26.73;18.60;;;16.70;99.90;;;;;;5028329;28;20442;-70
2021/07/25 04:34:10;;;;;;;26.45;18.48;;;16.70;99.90;;;;;;5023249;28;20100;-69
2021/07/25 04:36:36;;;;;;;21.55;16.77;;;16.80;99.90;;;;;;5023861;28;20029;-70
2021/07/25 04:39:05;;;;;;;19.83;15.50;;;16.80;99.90;;;;;;5026718;28;20048;-70
2021/07/25 04:41:36;;;;;;;19.60;14.00;;;16.80;99.90;;;;;;5027403;28;20399;-69
2021/07/25 04:44:13;;;;;;;19.05;14.07;;;16.90;99.90;;;;;;5028559;28;20040;-69
2021/07/25 04:46:47;;;;;;;18.85;13.77;;;16.90;99.90;;;;;;5031264;28;20068;-70
2021/07/25 04:49:14;;;;;;;17.77;13.73;;;17.10;99.90;;;;;;5027008;28;20021;-70
2021/07/25 04:51:42;;;;;;;18.02;12.82;;;17.00;99.90;;;;;;5030420;28;20022;-70
2021/07/25 04:54:15;;;;;;;18.70;12.90;;;17.10;99.90;;;;;;5031317;28;20029;-70
2021/07/25 04:57:02;;;;;;;18.75;13.90;;;17.10;99.90;;;;;;5028881;28;20080;-70
2021/07/25 04:59:40;;;;;;;20.08;13.45;;;17.10;99.90;;;;;;5030688;28;20172;-70
2021/07/25 05:02:07;;;;;;;15.57;13.23;;;17.10;99.90;;;;;;5029858;28;20082;-69
2021/07/25 05:04:33;;;;;;;16.55;12.93;;;17.10;99.90;;;;;;5022086;28;20377;-69
2021/07/25 05:06:59;;;;;;;16.00;12.32;;;17.10;99.90;;;;;;5030893;28;20079;-70
2021/07/25 05:09:26;;;;;;;17.40;13.02;;;17.10;99.90;;;;;;5030615;28;20025;-70
2021/07/25 05:12:10;;;;;;;20.88;14.00;;;17.20;99.90;;;;;;5034039;28;20392;-69
2021/07/25 05:14:38;;;;;;;18.25;13.82;;;17.20;99.90;;;;;;5016666;28;20049;-69
2021/07/25 05:17:34;;;;;;;18.23;14.10;;;17.30;99.90;;;;;;5034312;28;20087;-70
2021/07/25 05:20:03;;;;;;;17.52;12.52;;;17.40;99.90;;;;;;5031136;28;20032;-70
2021/07/25 05:22:50;;;;;;;17.40;13.50;;;17.50;99.90;;;;;;5029609;28;20068;-70
2021/07/25 05:25:19;;;;;;;15.88;12.30;;;17.70;99.90;;;;;;5034005;28;20091;-70
2021/07/25 05:27:48;;;;;;;15.38;11.45;;;18.00;99.90;;;;;;5033002;28;20476;-69
2021/07/25 05:30:19;;;;;;;15.23;10.65;;;18.30;99.90;;;;;;5030488;28;20033;-69
2021/07/25 05:32:45;;;;;;;14.07;11.02;;;18.50;99.90;;;;;;5028394;28;20089;-70
2021/07/25 05:35:11;;;;;;;14.23;10.93;;;18.60;99.90;;;;;;5028060;28;20428;-70
2021/07/25 05:37:37;;;;;;;16.58;10.90;;;18.70;99.90;;;;;;5032977;28;20399;-71
2021/07/25 05:40:05;;;;;;;13.77;12.05;;;18.80;99.90;;;;;;5033587;28;20025;-71
2021/07/25 05:42:30;;;;;;;12.32;10.52;;;18.80;99.90;;;;;;5031838;28;20025;-71
2021/07/25 05:44:56;;;;;;;14.40;11.40;;;18.80;99.90;;;;;;5028229;28;20045;-70
2021/07/25 05:47:21;;;;;;;14.77;11.50;;;18.90;99.90;;;;;;5029566;28;20032;-70
2021/07/25 05:49:47;;;;;;;13.27;10.18;;;18.90;99.90;;;;;;5021762;28;20391;-70
2021/07/25 05:52:13;;;;;;;15.18;11.63;;;18.90;99.90;;;;;;5031298;28;20018;-71
2021/07/25 05:54:38;;;;;;;15.55;11.70;;;19.00;99.90;;;;;;5030510;28;20099;-70
2021/07/25 05:57:04;;;;;;;15.23;11.88;;;19.00;99.90;;;;;;5023659;28;20021;-70
2021/07/25 05:59:29;;;;;;;12.93;11.32;;;19.00;99.90;;;;;;5026767;28;20034;-70
2021/07/25 06:01:55;;;;;;;16.40;12.18;;;19.10;99.90;;;;;;5028628;28;20025;-69
2021/07/25 06:04:20;;;;;;;14.27;11.70;;;19.10;99.90;;;;;;5032889;28;20028;-70
2021/07/25 06:06:47;;;;;;;16.92;12.30;;;19.10;99.90;;;;;;5029501;28;20092;-70
2021/07/25 06:09:12;;;;;;;15.80;11.75;;;19.10;99.90;;;;;;5028602;28;20021;-70
2021/07/25 06:11:38;;;;;;;14.40;12.23;;;19.20;99.90;;;;;;5028673;28;20034;-70
2021/07/25 06:14:05;;;;;;;13.02;11.00;;;19.30;99.90;;;;;;5030454;28;20030;-70
2021/07/25 06:16:30;;;;;;;13.93;11.90;;;19.40;99.90;;;;;;5022877;28;20040;-69
2021/07/25 06:18:56;;;;;;;16.58;11.63;;;19.50;99.90;;;;;;5030745;28;20034;-70
2021/07/25 06:21:23;;;;;;;14.02;10.45;;;19.60;99.90;;;;;;5031960;28;20060;-70
2021/07/25 06:23:50;;;;;;;13.75;11.25;;;19.60;99.90;;;;;;5026657;28;20514;-70
2021/07/25 06:26:16;;;;;;;15.15;10.65;;;19.70;99.80;;;;;;5021220;28;20144;-71
2021/07/25 06:28:42;;;;;;;14.45;10.00;;;19.80;99.60;;;;;;5031432;28;20108;-70
2021/07/25 06:31:07;;;;;;;12.63;9.60;;;20.00;99.60;;;;;;5027517;28;20017;-70
2021/07/25 06:33:33;;;;;;;11.02;8.93;;;20.10;99.20;;;;;;5032325;28;20497;-70
2021/07/25 06:35:59;;;;;;;13.93;9.60;;;20.20;99.00;;;;;;5032544;28;20025;-69
2021/07/25 06:38:24;;;;;;;13.27;9.60;;;20.30;98.70;;;;;;5028155;28;20072;-70
2021/07/25 06:40:53;;;;;;;11.15;8.95;;;20.50;98.50;;;;;;5031658;28;20030;-69
2021/07/25 06:43:19;;;;;;;12.43;9.63;;;20.60;98.00;;;;;;5030881;28;20037;-68
2021/07/25 06:45:45;;;;;;;11.85;9.00;;;20.60;97.90;;;;;;5031345;28;20030;-70
2021/07/25 06:48:21;;;;;;;11.95;7.97;;;20.70;97.60;;;;;;5030666;28;20116;-70
2021/07/25 06:50:51;;;;;;;10.50;7.55;;;20.80;97.20;;;;;;5031077;28;20083;-69
2021/07/25 06:53:19;;;;;;;9.73;7.15;;;20.90;97.30;;;;;;5031726;28;20059;-71
2021/07/25 06:55:45;;;;;;;10.32;7.78;;;21.00;97.10;;;;;;5031874;28;20025;-68
2021/07/25 06:58:11;;;;;;;12.48;8.65;;;21.10;96.70;;;;;;5025747;28;20041;-70
2021/07/25 07:00:36;;;;;;;13.52;8.18;;;21.20;96.50;;;;;;5017597;28;20484;-69
2021/07/25 07:03:02;;;;;;;14.90;10.35;;;21.30;96.30;;;;;;5032210;28;20045;-69
2021/07/25 07:05:31;;;;;;;15.73;10.13;;;21.50;96.30;;;;;;5029139;28;20550;-69
2021/07/25 07:08:02;;;;;;;11.15;9.18;;;21.60;96.00;;;;;;5019524;28;20488;-70
2021/07/25 07:10:31;;;;;;;13.10;10.00;;;21.70;95.70;;;;;;5031817;28;20044;-70
2021/07/25 07:12:58;;;;;;;11.85;9.00;;;21.90;95.20;;;;;;5031621;28;20036;-70
2021/07/25 07:15:26;;;;;;;17.35;10.25;;;21.90;95.00;;;;;;5025088;28;20034;-69
2021/07/25 07:17:53;;;;;;;13.57;9.48;;;22.00;94.60;;;;;;5030773;28;20030;-70
2021/07/25 07:20:19;;;;;;;13.98;9.13;;;21.90;94.30;;;;;;5029615;28;20030;-70
2021/07/25 07:22:55;;;;;;;9.93;8.25;;;22.00;94.50;;;;;;5031148;28;20021;-70
2021/07/25 07:25:22;;;;;;;10.60;8.15;;;22.30;94.20;;;;;;5024678;28;20038;-70
2021/07/25 07:27:48;;;;;;;11.23;8.25;;;22.40;93.70;;;;;;5026647;28;20044;-70
2021/07/25 07:30:13;;;;;;;10.93;8.00;;;22.60;93.30;;;;;;5020367;28;20030;-70
2021/07/25 07:32:39;;;;;;;10.55;7.10;;;22.70;93.10;;;;;;5030294;28;20017;-69
2021/07/25 07:35:05;;;;;;;10.82;8.27;;;22.80;92.70;;;;;;5025988;28;20060;-70
2021/07/25 07:37:30;;;;;;;10.07;7.72;;;22.80;92.50;;;;;;5026777;28;20021;-70
2021/07/25 07:39:56;;;;;;;10.38;8.45;;;22.80;92.20;;;;;;5031330;28;20029;-71
2021/07/25 07:42:21;;;;;;;10.63;7.90;;;22.70;92.10;;;;;;5027727;28;20021;-70
2021/07/25 07:44:48;;;;;;;9.10;7.35;;;22.70;92.20;;;;;;5026844;28;20075;-71
2021/07/25 07:47:13;;;;;;;9.43;7.47;;;22.70;92.30;;;;;;5025125;28;20029;-71
2021/07/25 07:49:39;;;;;;;10.13;7.22;;;22.70;91.90;;;;;;5029028;28;20025;-72
2021/07/25 07:52:05;;;;;;;8.63;6.85;;;22.80;92.10;;;;;;5022504;28;20423;-71
2021/07/25 07:54:32;;;;;;;8.55;7.00;;;22.90;92.00;;;;;;5026956;28;20036;-72
2021/07/25 07:56:57;;;;;;;9.75;8.45;;;23.00;91.70;;;;;;5027102;28;20029;-72
2021/07/25 07:59:23;;;;;;;8.20;6.50;;;23.00;91.30;;;;;;5026728;28;20104;-71
2021/07/25 08:01:48;;;;;;;9.10;6.53;;;23.00;91.30;;;;;;5027430;28;20547;-72
2021/07/25 08:04:14;;;;;;;8.52;7.65;;;23.00;90.90;;;;;;5025625;28;20480;-71
2021/07/25 08:06:39;;;;;;;10.55;8.23;;;23.10;90.90;;;;;;5028363;28;20084;-72
2021/07/25 08:09:05;;;;;;;10.23;8.73;;;23.10;90.70;;;;;;5029285;28;20488;-72
2021/07/25 08:11:31;;;;;;;11.27;8.32;;;23.10;90.80;;;;;;5028764;28;20017;-72
2021/07/25 08:13:56;;;;;;;12.43;8.75;;;23.20;90.90;;;;;;5028456;28;20048;-70
2021/07/25 08:16:22;;;;;;;9.52;7.85;;;23.30;90.70;;;;;;5027834;28;20120;-71
2021/07/25 08:18:47;;;;;;;11.43;7.97;;;23.40;90.70;;;;;;5028132;28;20025;-70
2021/07/25 08:21:13;;;;;;;10.65;7.88;;;23.40;90.40;;;;;;5025527;28;20034;-71
2021/07/25 08:23:38;;;;;;;9.73;6.97;;;23.50;90.30;;;;;;5027118;28;20472;-71
2021/07/25 08:26:04;;;;;;;9.57;6.85;;;23.50;90.20;;;;;;5026655;28;20030;-71
2021/07/25 08:28:30;;;;;;;8.15;6.00;;;23.50;90.10;;;;;;5021374;28;20487;-71
2021/07/25 08:30:56;;;;;;;7.85;5.93;;;23.60;90.10;;;;;;5025811;28;20029;-70
2021/07/25 08:33:22;;;;;;;7.70;6.68;;;23.70;89.60;;;;;;5027309;28;20026;-71
2021/07/25 08:35:47;;;;;;;11.15;6.60;;;23.60;88.60;;;;;;5028078;28;20033;-70
2021/07/25 08:38:13;;;;;;;8.40;6.85;;;23.40;88.90;;;;;;5027939;28;20055;-69
2021/07/25 08:40:42;;;;;;;9.55;6.72;;;23.40;89.00;;;;;;5030777;28;20824;-69
2021/07/25 08:43:10;;;;;;;10.13;7.15;;;23.40;89.60;;;;;;5029284;28;20067;-69
2021/07/25 08:45:38;;;;;;;8.43;6.25;;;23.40;89.30;;;;;;5029092;28;20030;-69
2021/07/25 08:48:11;;;;;;;10.35;6.75;;;23.50;89.10;;;;;;5025203;28;20021;-70
2021/07/25 08:50:42;;;;;;;7.50;6.55;;;23.60;88.50;;;;;;5023735;28;20025;-69
2021/07/25 08:53:17;;;;;;;9.13;6.00;;;23.70;88.20;;;;;;5031451;28;20026;-70
2021/07/25 08:55:43;;;;;;;8.27;6.25;;;23.90;87.70;;;;;;5034129;28;20025;-70
2021/07/25 08:58:11;;;;;;;9.95;7.07;;;23.90;87.40;;;;;;5027864;28;20033;-69
2021/07/25 09:00:37;;;;;;;8.32;6.65;;;24.00;87.50;;;;;;5025926;28;20033;-69
2021/07/25 09:03:07;;;;;;;7.65;6.22;;;23.90;86.90;;;;;;5030172;28;20099;-70
2021/07/25 09:05:32;;;;;;;9.63;7.63;;;23.90;87.30;;;;;;5030061;28;20597;-70
2021/07/25 09:08:01;;;;;;;10.55;7.18;;;23.80;87.00;;;;;;5022073;28;20040;-68
2021/07/25 09:10:26;;;;;;;8.65;7.70;;;23.80;87.60;;;;;;5026134;28;20034;-69
2021/07/25 09:12:52;;;;;;;16.60;7.82;;;23.70;88.40;;;;;;5026787;28;20391;-69
2021/07/25 09:15:29;;;;;;;16.25;8.63;;;23.50;88.60;;;;;;5021170;28;20407;-69
2021/07/25 09:17:56;;;;;;;10.15;7.68;;;23.50;89.70;;;;;;5028468;28;20029;-69
2021/07/25 09:20:28;;;;;;;10.88;8.05;;;23.80;89.80;;;;;;5027014;28;20024;-69
2021/07/25 09:22:56;;;;;;;10.23;7.70;;;24.10;88.40;;;;;;5034807;28;20069;-70
2021/07/25 09:25:21;;;;;;;8.57;7.22;;;24.30;87.10;;;;;;5029783;28;20021;-70
2021/07/25 09:27:57;;;;;;;8.57;6.40;;;24.50;86.60;;;;;;5025933;28;20034;-70
2021/07/25 09:30:30;;;;;;;9.52;7.47;;;24.70;86.00;;;;;;5026469;28;20034;-70
2021/07/25 09:32:57;;;;;;;9.48;6.72;;;24.90;84.90;;;;;;5026628;28;20025;-69
2021/07/25 09:35:28;;;;;;;11.15;7.78;;;24.80;84.50;;;;;;5028971;28;20029;-70
2021/07/25 09:37:57;;;;;;;8.80;7.20;;;24.90;84.30;;;;;;5022575;28;20022;-70
2021/07/25 09:40:29;;;;;;;6.15;4.70;;;25.00;84.30;;;;;;5022080;28;20041;-69
2021/07/25 09:43:09;;;;;;;8.27;4.90;;;25.10;82.50;;;;;;5027659;28;20026;-69
2021/07/25 09:45:53;;;;;;;7.32;4.68;;;25.00;81.70;;;;;;5030253;28;20022;-70
2021/07/25 09:48:22;;;;;;;7.30;4.65;;;25.10;81.70;;;;;;5026794;28;20029;-69
2021/07/25 09:50:49;;;;;;;7.80;4.28;;;25.10;81.40;;;;;;5027372;28;20017;-70
2021/07/25 09:53:16;;;;;;;6.35;3.67;;;25.20;81.20;;;;;;5027139;28;20034;-69
2021/07/25 09:55:42;;;;;;;6.68;3.47;;;25.30;80.30;;;;;;5025720;28;21728;-70
2021/07/25 09:58:08;;;;;;;8.38;3.58;;;25.50;79.60;;;;;;5023886;28;20049;-70
2021/07/25 10:00:45;;;;;;;6.05;4.05;;;25.60;79.20;;;;;;5015624;28;20057;-70
2021/07/25 10:03:32;;;;;;;6.03;3.58;;;26.00;78.10;;;;;;5020704;28;20048;-70
2021/07/25 10:05:58;;;;;;;6.00;3.92;;;26.20;76.90;;;;;;5024217;28;20029;-69
2021/07/25 10:08:24;;;;;;;6.50;3.83;;;26.40;76.60;;;;;;5016883;28;20029;-69
2021/07/25 10:10:51;;;;;;;6.00;4.25;;;26.50;76.40;;;;;;5020821;28;20097;-69
2021/07/25 10:13:26;;;;;;;4.75;3.58;;;26.60;74.90;;;;;;5020351;28;20046;-69
2021/07/25 10:16:00;;;;;;;5.97;3.53;;;26.40;75.40;;;;;;5024798;28;20049;-70
2021/07/25 10:18:27;;;;;;;4.20;3.03;;;26.20;75.20;;;;;;5018718;28;20141;-70
2021/07/25 10:20:58;;;;;;;5.38;3.50;;;26.00;75.10;;;;;;5022697;28;20029;-69
2021/07/25 10:23:40;;;;;;;5.60;3.57;;;25.90;75.00;;;;;;5031926;28;20044;-69
2021/07/25 10:26:06;;;;;;;5.70;3.20;;;25.90;75.10;;;;;;5027947;28;20037;-69
2021/07/25 10:28:34;;;;;;;5.10;2.97;;;25.80;75.20;;;;;;5031121;28;20430;-69
2021/07/25 10:31:01;;;;;;;4.18;3.10;;;25.80;76.00;;;;;;5031032;28;20106;-70
2021/07/25 10:33:29;;;;;;;6.72;3.25;;;25.80;76.10;;;;;;5030290;28;20024;-68
2021/07/25 10:35:56;;;;;;;6.20;3.72;;;26.00;75.70;;;;;;5028068;28;20025;-69
2021/07/25 10:38:22;;;;;;;4.63;2.55;;;26.20;75.70;;;;;;5029760;28;20029;-69
2021/07/25 10:40:48;;;;;;;4.63;2.92;;;26.60;74.70;;;;;;5030033;28;20503;-70
2021/07/25 10:43:16;;;;;;;4.68;2.72;;;27.00;73.70;;;;;;5032252;28;20036;-70
2021/07/25 10:45:42;;;;;;;7.90;3.13;;;27.30;72.70;;;;;;5031710;28;20400;-69
2021/07/25 10:48:17;;;;;;;4.63;3.20;;;27.70;71.90;;;;;;5017651;28;20021;-70
2021/07/25 10:50:43;;;;;;;5.53;3.15;;;27.90;69.90;;;;;;5018978;28;20025;-72
2021/07/25 10:53:21;;;;;;;4.35;2.38;;;27.90;69.70;;;;;;5019967;28;20033;-71
2021/07/25 10:55:48;;;;;;;6.97;2.72;;;28.10;69.30;;;;;;5017468;28;20049;-71
2021/07/25 10:58:17;;;;;;;7.80;2.50;;;28.00;67.70;;;;;;5016872;28;20033;-71
2021/07/25 11:00:45;;;;;;;3.90;1.98;;;27.90;67.30;;;;;;5016578;28;20962;-70
2021/07/25 11:03:29;;;;;;;5.20;2.03;;;27.90;66.70;;;;;;5019174;28;20044;-70
2021/07/25 11:06:07;;;;;;;4.15;1.92;;;28.00;66.00;;;;;;5019202;28;20491;-70
2021/07/25 11:08:41;;;;;;;5.25;2.15;;;28.00;66.50;;;;;;5018619;28;20040;-70
2021/07/25 11:11:26;;;;;;;5.45;2.45;;;28.10;65.50;;;;;;5017460;28;20032;-70
2021/07/25 11:13:52;;;;;;;4.53;1.83;;;28.30;65.30;;;;;;5019508;28;20132;-70
2021/07/25 11:16:29;;;;;;;3.22;1.45;;;28.40;64.80;;;;;;5019880;28;20070;-70
2021/07/25 11:19:04;;;;;;;4.50;1.67;;;28.30;64.00;;;;;;5016636;28;20523;-70
2021/07/25 11:21:31;;;;;;;2.42;1.40;;;28.20;63.20;;;;;;5015239;28;20711;-70
2021/07/25 11:23:57;;;;;;;3.83;1.80;;;28.30;63.70;;;;;;5018855;28;20088;-71
2021/07/25 11:26:36;;;;;;;4.40;1.70;;;28.40;63.40;;;;;;5019234;28;20688;-70
2021/07/25 11:29:04;;;;;;;4.78;1.73;;;28.20;62.60;;;;;;5023779;28;20427;-69
2021/07/25 11:31:35;;;;;;;3.63;2.13;;;28.00;63.10;;;;;;5022029;28;20018;-70
2021/07/25 11:34:02;;;;;;;5.25;2.38;;;27.70;63.90;;;;;;5024528;28;20108;-70
2021/07/25 11:36:28;;;;;;;3.47;1.52;;;27.40;64.50;;;;;;5024662;28;20030;-70
2021/07/25 11:38:55;;;;;;;3.95;2.13;;;27.20;65.50;;;;;;5024638;28;20036;-70
2021/07/25 11:41:24;;;;;;;3.83;1.92;;;27.20;66.70;;;;;;5026515;28;20029;-70
2021/07/25 11:44:07;;;;;;;4.85;1.88;;;27.30;66.60;;;;;;5024648;28;20034;-70
2021/07/25 11:46:46;;;;;;;2.83;1.73;;;27.30;66.80;;;;;;5027227;28;20026;-69
2021/07/25 11:49:16;;;;;;;3.13;1.65;;;27.30;66.30;;;;;;5022813;28;20167;-69
2021/07/25 11:51:50;;;;;;;2.38;1.30;;;27.40;65.80;;;;;;5022096;28;20635;-70
2021/07/25 11:54:24;;;;;;;3.38;1.63;;;27.50;64.80;;;;;;5023364;28;20090;-70
2021/07/25 11:57:03;;;;;;;4.30;1.60;;;27.70;64.70;;;;;;5023599;28;20080;-69
2021/07/25 11:59:31;;;;;;;2.83;1.45;;;27.70;64.10;;;;;;5022585;28;20063;-70
2021/07/25 12:01:57;;;;;;;3.92;1.65;;;27.80;64.40;;;;;;5025495;28;20029;-70
2021/07/25 12:04:24;;;;;;;3.53;1.30;;;27.90;64.10;;;;;;5022920;28;20387;-70
2021/07/25 12:06:59;;;;;;;2.88;1.38;;;28.10;63.70;;;;;;5023724;28;20025;-70
2021/07/25 12:09:25;;;;;;;3.40;1.38;;;28.30;62.80;;;;;;5023170;28;20025;-69
2021/07/25 12:12:03;;;;;;;4.07;1.50;;;28.50;61.80;;;;;;5024538;28;20037;-70
2021/07/25 12:14:29;;;;;;;4.15;1.27;;;28.60;62.80;;;;;;5025415;28;20407;-69
2021/07/25 12:16:56;;;;;;;3.03;1.08;;;28.80;62.90;;;;;;5028200;28;20097;-70
2021/07/25 12:19:22;;;;;;;3.15;0.90;;;28.90;61.30;;;;;;5027164;28;20030;-70
2021/07/25 12:21:48;;;;;;;2.60;1.10;;;29.00;60.30;;;;;;5026822;28;20049;-68
2021/07/25 12:24:32;;;;;;;1.90;0.90;;;29.00;58.90;;;;;;5027811;28;20060;-69
2021/07/25 12:26:59;;;;;;;1.58;0.80;;;29.10;59.20;;;;;;5027720;28;20033;-69
2021/07/25 12:29:47;;;;;;;3.20;0.68;;;29.30;58.10;;;;;;5027098;28;20025;-70
2021/07/25 12:32:23;;;;;;;1.65;0.75;;;29.40;56.40;;;;;;5026905;28;20435;-69
2021/07/25 12:34:54;;;;;;;2.90;1.17;;;29.50;55.90;;;;;;5029766;28;20199;-69
2021/07/25 12:37:28;;;;;;;2.38;0.80;;;29.50;56.20;;;;;;5026879;28;20036;-69
2021/07/25 12:40:08;;;;;;;2.47;0.80;;;29.60;56.40;;;;;;5026073;28;20029;-69
2021/07/25 12:42:41;;;;;;;1.60;0.80;;;29.70;56.20;;;;;;5027612;28;20025;-71